Helena, Missouri
Current Conditions -  °F | °C
As of 12:53 AM on Saturday 20 Dec 2014 (Local Time) from KSTJ Reporting Station
Overcast Overcast  
Wind Chill: 26°   Ceiling: 1200
Heat Index: 32°   Visibility: 10mi
Dew Point: 29°   Wind: 7mph
Humidity: 88%   Direction: 210°SSW
Pressure: 30.2"   Gusts: NA
Location:  39.91°N, 94.65°W
Report Text: KSTJ 200653Z AUTO 21006KT 10SM OVC012 00/M02 A3020 RMK AO2 SLP234 T00001017
Loading
Personal Weather Stations






























Interactive Weather Map New forecast layout! Learn more

10-Day Weather Forecast

Advertisements
Track Severe Weather on mobile